Time;durP1;ratioP1;P1;durP2;ratioP2;P2;SDS_P1;SDS_P2;PMS_P1;PMS_P2;Temp;Humidity;BMP_temperature;BMP_pressure;BME280_temperature;BME280_humidity;BME280_pressure;Samples;Min_cycle;Max_cycle;Signal;HPM_P1;HPM_P2
2023/02/02 00:01:33;;;;;;;18.38;2.20;;;;;;;7.33;63.54;100455.06;5047349;27;99567;-69
2023/02/02 00:04:00;;;;;;;31.23;2.88;;;;;;;7.29;64.80;100456.03;5049752;27;99110;-69
2023/02/02 00:06:28;;;;;;;18.13;2.50;;;;;;;7.46;64.00;100451.22;5046589;27;98924;-69
2023/02/02 00:08:56;;;;;;;21.40;2.83;;;;;;;7.78;62.83;100431.03;5043425;27;97348;-69
2023/02/02 00:11:23;;;;;;;16.65;2.67;;;;;;;7.40;63.71;100454.00;5048437;27;99225;-69
2023/02/02 00:13:50;;;;;;;14.30;2.10;;;;;;;7.50;64.07;100458.09;5046409;27;99336;-70
2023/02/02 00:16:36;;;;;;;16.65;2.63;;;;;;;7.37;63.98;100459.34;5050764;27;96724;-70
2023/02/02 00:19:05;;;;;;;15.48;2.45;;;;;;;7.58;62.99;100456.13;5052073;27;96949;-69
2023/02/02 00:21:32;;;;;;;19.42;3.20;;;;;;;7.40;63.39;100443.50;5058639;27;98985;-69
2023/02/02 00:23:58;;;;;;;21.23;4.20;;;;;;;7.51;63.65;100449.31;5046943;27;98242;-70
2023/02/02 00:26:25;;;;;;;19.35;2.20;;;;;;;7.58;63.71;100442.13;5054192;27;102407;-68
2023/02/02 00:28:52;;;;;;;20.25;2.72;;;;;;;7.49;63.79;100445.00;5055500;27;96889;-71
2023/02/02 00:31:19;;;;;;;29.63;2.80;;;;;;;7.42;64.00;100444.28;5062206;27;99509;-69
2023/02/02 00:33:47;;;;;;;18.95;2.35;;;;;;;7.53;63.59;100434.38;5052777;27;99141;-70
2023/02/02 00:36:14;;;;;;;18.23;2.00;;;;;;;7.60;63.63;100442.94;5050349;27;98534;-69
2023/02/02 00:38:41;;;;;;;20.48;2.65;;;;;;;7.64;63.43;100427.94;5060315;27;96916;-69
2023/02/02 00:41:07;;;;;;;20.25;2.70;;;;;;;7.60;63.83;100446.44;5044304;27;98199;-69
2023/02/02 00:43:34;;;;;;;23.05;2.97;;;;;;;7.77;63.10;100430.16;5046526;27;101904;-69
2023/02/02 00:46:00;;;;;;;26.95;3.15;;;;;;;7.90;63.13;100425.41;5044011;27;98583;-70
2023/02/02 00:48:26;;;;;;;;;;;;;;;8.04;62.59;100423.22;5046062;27;97645;-69
2023/02/02 00:50:55;;;;;;;12.55;1.83;;;;;;;8.26;61.94;100426.94;5045805;27;99273;-69
2023/02/02 00:53:21;;;;;;;22.63;3.22;;;;;;;8.14;62.87;100424.66;5043579;27;98820;-69
2023/02/02 00:55:47;;;;;;;16.73;3.13;;;;;;;8.01;62.96;100420.69;5047073;27;98741;-69
2023/02/02 00:58:14;;;;;;;16.33;2.80;;;;;;;7.82;64.05;100433.50;5056925;27;97333;-69
2023/02/02 01:00:40;;;;;;;30.27;3.72;;;;;;;8.06;63.31;100438.97;5044966;27;99240;-69
2023/02/02 01:03:07;;;;;;;10.90;2.10;;;;;;;7.91;63.68;100435.88;5049564;27;100986;-68
2023/02/02 01:05:34;;;;;;;16.38;2.20;;;;;;;7.72;65.07;100442.59;5046701;27;99157;-68
2023/02/02 01:08:02;;;;;;;18.35;3.25;;;;;;;7.40;66.61;100455.78;5049218;27;96888;-69
2023/02/02 01:10:29;;;;;;;20.42;2.80;;;;;;;7.72;66.31;100457.50;5055417;27;100084;-69
2023/02/02 01:12:55;;;;;;;25.67;3.55;;;;;;;7.79;65.97;100449.41;5049957;27;98114;-69
2023/02/02 01:15:21;;;;;;;21.45;2.28;;;;;;;7.71;66.97;100451.38;5049506;27;97509;-69
2023/02/02 01:17:48;;;;;;;25.40;2.83;;;;;;;7.64;67.73;100447.19;5056052;27;97230;-71
2023/02/02 01:20:17;;;;;;;26.70;3.67;;;;;;;7.28;69.58;100446.47;5047387;27;98893;-69
2023/02/02 01:22:43;;;;;;;14.70;2.42;;;;;;;7.74;67.79;100451.31;5053722;27;98824;-69
2023/02/02 01:25:13;;;;;;;23.92;3.10;;;;;;;7.71;67.75;100450.53;5048617;27;96822;-70
2023/02/02 01:27:40;;;;;;;24.85;3.00;;;;;;;7.63;68.47;100457.75;5055983;27;97573;-69
2023/02/02 01:30:08;;;;;;;14.65;1.70;;;;;;;7.51;68.04;100459.81;5053138;27;98882;-69
2023/02/02 01:32:34;;;;;;;15.45;2.28;;;;;;;7.34;68.94;100461.19;5052185;27;98981;-69
2023/02/02 01:35:00;;;;;;;22.35;2.30;;;;;;;7.69;68.99;100465.47;5045666;27;97313;-71
2023/02/02 01:37:27;;;;;;;23.70;4.00;;;;;;;7.84;68.43;100460.66;5047307;27;97136;-70
2023/02/02 01:39:53;;;;;;;28.52;3.45;;;;;;;7.96;67.32;100467.31;5054436;27;102441;-69
2023/02/02 01:42:23;;;;;;;25.15;2.40;;;;;;;7.41;69.10;100452.25;5045093;27;98867;-70
2023/02/02 01:45:17;;;;;;;19.35;2.55;;;;;;;7.46;68.67;100448.59;5045911;27;96769;-70
2023/02/02 01:47:48;;;;;;;19.10;2.75;;;;;;;7.63;67.92;100457.75;5052969;27;97407;-70
2023/02/02 01:50:17;;;;;;;23.55;2.97;;;;;;;7.73;67.91;100451.34;5038217;27;99131;-69
2023/02/02 01:52:48;;;;;;;15.40;2.50;;;;;;;7.37;68.99;100467.22;5047658;27;98962;-68
2023/02/02 01:55:17;;;;;;;18.15;2.20;;;;;;;7.54;68.78;100464.16;5055114;27;99156;-70
2023/02/02 01:57:54;;;;;;;17.90;2.38;;;;;;;7.94;68.52;100469.16;5050063;27;97764;-69
2023/02/02 02:00:24;;;;;;;22.63;3.50;;;;;;;7.69;69.18;100457.56;5053826;27;99572;-71
2023/02/02 02:02:53;;;;;;;17.70;1.85;;;;;;;7.79;69.18;100469.59;5056464;27;99384;-71
2023/02/02 02:05:30;;;;;;;24.98;2.55;;;;;;;7.74;68.97;100459.19;5045516;27;98857;-70
2023/02/02 02:08:05;;;;;;;18.38;2.30;;;;;;;7.77;69.24;100474.00;5059327;27;96843;-69
2023/02/02 02:10:32;;;;;;;19.20;2.33;;;;;;;7.96;68.14;100477.84;5047991;27;98964;-69
2023/02/02 02:12:59;;;;;;;27.02;3.03;;;;;;;7.95;68.22;100476.13;5051504;27;98854;-69
2023/02/02 02:18:25;;;;;;;23.55;2.28;;;;;;;8.32;66.66;100475.94;5056592;27;96761;-69
2023/02/02 02:28:09;;;;;;;18.40;2.20;;;;;;;7.95;67.11;100481.38;5054516;27;96834;-70
2023/02/02 02:30:50;;;;;;;19.98;2.75;;;;;;;8.15;66.47;100478.16;5036991;27;97138;-69
2023/02/02 02:33:26;;;;;;;14.65;1.77;;;;;;;8.07;66.40;100490.72;5057768;27;98894;-70
2023/02/02 02:36:00;;;;;;;15.00;2.33;;;;;;;8.00;66.65;100490.03;5059901;27;101167;-69
2023/02/02 02:38:36;;;;;;;22.60;2.70;;;;;;;8.00;67.36;100495.28;5061725;27;97161;-69
2023/02/02 02:41:09;;;;;;;19.35;2.35;;;;;;;8.28;66.48;100504.06;5063200;27;96943;-69
2023/02/02 02:43:39;;;;;;;19.67;2.03;;;;;;;8.57;64.82;100500.59;5065125;27;99445;-70
2023/02/02 02:46:07;;;;;;;23.17;3.33;;;;;;;8.49;65.67;100493.84;5066287;27;99745;-70
2023/02/02 02:48:34;;;;;;;18.85;1.92;;;;;;;8.54;64.53;100502.44;5071738;27;97266;-69
2023/02/02 02:51:08;;;;;;;24.65;2.33;;;;;;;8.26;65.83;100508.53;5057202;27;97521;-69
2023/02/02 02:53:37;;;;;;;15.85;2.15;;;;;;;8.13;66.37;100499.28;5062733;27;99286;-69
2023/02/02 02:56:10;;;;;;;19.05;2.50;;;;;;;7.97;66.44;100506.75;5060072;27;98722;-69
2023/02/02 02:58:46;;;;;;;20.73;2.67;;;;;;;7.81;67.46;100504.59;5062718;27;96635;-70
2023/02/02 03:01:19;;;;;;;14.10;1.92;;;;;;;7.93;66.94;100512.16;5047035;27;97277;-71
2023/02/02 03:04:00;;;;;;;17.60;2.15;;;;;;;7.84;67.50;100517.66;5049870;27;98035;-69
2023/02/02 03:06:33;;;;;;;16.83;1.80;;;;;;;8.22;66.45;100517.41;5049755;27;99242;-70
2023/02/02 03:09:03;;;;;;;11.15;2.28;;;;;;;7.77;67.31;100516.97;5051171;27;98862;-70
2023/02/02 03:11:29;;;;;;;22.50;3.28;;;;;;;8.06;66.51;100526.69;5060989;27;96783;-70
2023/02/02 03:13:56;;;;;;;16.08;2.17;;;;;;;7.99;67.08;100535.66;5060037;27;99034;-69
2023/02/02 03:16:23;;;;;;;5.63;1.40;;;;;;;7.49;68.24;100534.38;5048585;27;98258;-69
2023/02/02 03:18:50;;;;;;;11.07;1.98;;;;;;;7.95;67.84;100547.16;5054612;27;96832;-69
2023/02/02 03:21:17;;;;;;;16.02;1.95;;;;;;;8.21;66.16;100563.06;5050526;27;96746;-69
2023/02/02 03:23:43;;;;;;;14.10;2.55;;;;;;;8.51;64.97;100550.81;5047995;27;99378;-69
2023/02/02 03:26:10;;;;;;;11.80;2.03;;;;;;;7.85;66.97;100569.38;5050184;27;98988;-70
2023/02/02 03:28:36;;;;;;;11.98;1.98;;;;;;;8.17;65.92;100561.44;5049041;27;98436;-68
2023/02/02 03:31:03;;;;;;;10.68;1.40;;;;;;;8.28;65.39;100569.88;5049764;27;96922;-68
2023/02/02 03:33:30;;;;;;;8.82;2.05;;;;;;;8.31;64.87;100574.25;5060686;27;99156;-69
2023/02/02 03:35:58;;;;;;;15.70;1.63;;;;;;;8.24;65.57;100584.06;5065278;27;99031;-68
2023/02/02 03:38:24;;;;;;;14.65;2.40;;;;;;;8.14;65.60;100577.31;5066634;27;96851;-68
2023/02/02 03:40:51;;;;;;;13.65;2.55;;;;;;;7.64;67.63;100583.09;5066194;27;96797;-68
2023/02/02 03:43:21;;;;;;;16.15;1.88;;;;;;;7.96;66.74;100588.34;5053806;27;99152;-69
2023/02/02 03:45:47;;;;;;;12.63;1.73;;;;;;;7.88;67.60;100606.09;5061060;27;99245;-69
2023/02/02 03:48:14;;;;;;;12.73;1.83;;;;;;;8.14;66.65;100614.16;5058021;27;97462;-69
2023/02/02 03:50:40;;;;;;;12.40;1.58;;;;;;;8.08;66.44;100613.47;5055679;27;98161;-69
2023/02/02 03:53:08;;;;;;;16.63;2.70;;;;;;;8.29;65.76;100608.47;5063862;27;99037;-70
2023/02/02 03:55:34;;;;;;;24.63;3.35;;;;;;;7.48;68.21;100601.88;5070489;27;99047;-70
2023/02/02 03:58:01;;;;;;;17.92;2.55;;;;;;;7.91;67.75;100611.28;5072785;27;96788;-68
2023/02/02 04:00:27;;;;;;;15.23;2.10;;;;;;;8.04;66.59;100627.63;5057309;27;96863;-69
2023/02/02 04:02:54;;;;;;;13.52;1.77;;;;;;;7.97;66.57;100632.19;5048447;27;99100;-68
2023/02/02 04:05:20;;;;;;;10.95;1.83;;;;;;;7.93;66.63;100641.94;5056958;27;98944;-69
2023/02/02 04:07:47;;;;;;;13.43;1.77;;;;;;;8.07;66.58;100632.81;5047483;27;97605;-67
2023/02/02 04:10:16;;;;;;;11.88;1.60;;;;;;;8.24;65.75;100649.88;5046478;27;98701;-68
2023/02/02 04:12:42;;;;;;;11.20;1.50;;;;;;;8.21;65.25;100636.78;5057676;27;99313;-67
2023/02/02 04:15:09;;;;;;;9.73;1.13;;;;;;;8.33;64.24;100636.50;5051639;27;99015;-69
2023/02/02 04:17:36;;;;;;;7.90;1.08;;;;;;;8.11;65.52;100664.25;5043094;27;97805;-68
2023/02/02 04:20:03;;;;;;;12.80;2.13;;;;;;;8.07;64.96;100665.25;5051048;27;97072;-69
2023/02/02 04:22:29;;;;;;;10.18;1.50;;;;;;;8.08;65.26;100668.72;5040449;27;99382;-67
2023/02/02 04:24:55;;;;;;;16.27;1.70;;;;;;;8.34;64.26;100674.19;5047642;27;99591;-68
2023/02/02 04:27:23;;;;;;;10.90;1.65;;;;;;;7.99;65.46;100685.63;5057564;27;96779;-66
2023/02/02 04:29:49;;;;;;;6.88;1.17;;;;;;;8.28;65.04;100690.97;5054306;27;96792;-68
2023/02/02 04:32:17;;;;;;;12.90;1.60;;;;;;;8.63;63.78;100690.06;5044342;27;99326;-69
2023/02/02 04:34:44;;;;;;;8.25;2.00;;;;;;;8.44;63.38;100691.47;5047735;27;100721;-68
2023/02/02 04:37:10;;;;;;;11.55;1.75;;;;;;;8.61;63.70;100696.25;5058159;27;96705;-68
2023/02/02 04:39:37;;;;;;;15.07;1.60;;;;;;;8.22;64.62;100703.44;5044939;27;96882;-67
2023/02/02 04:42:04;;;;;;;12.73;1.60;;;;;;;8.66;63.15;100715.44;5048167;27;98977;-68
2023/02/02 04:44:31;;;;;;;14.45;2.20;;;;;;;8.53;63.51;100711.44;5048321;27;99076;-69
2023/02/02 04:46:58;;;;;;;12.82;1.70;;;;;;;8.67;62.72;100699.59;5057237;27;96839;-69
2023/02/02 04:49:24;;;;;;;10.43;1.33;;;;;;;8.87;62.42;100719.22;5049259;27;97308;-69
2023/02/02 04:51:50;;;;;;;22.92;2.35;;;;;;;9.05;61.07;100732.75;5049839;27;99141;-69
2023/02/02 04:54:17;;;;;;;15.65;3.15;;;;;;;8.78;61.50;100738.81;5053408;27;98790;-68
2023/02/02 04:56:43;;;;;;;17.15;1.92;;;;;;;8.71;62.46;100732.84;5049200;27;97175;-68
2023/02/02 04:59:10;;;;;;;12.70;1.90;;;;;;;8.77;62.26;100734.44;5048845;27;96980;-68
2023/02/02 05:01:37;;;;;;;13.13;1.67;;;;;;;8.39;63.59;100743.41;5043988;27;99005;-68
2023/02/02 05:04:04;;;;;;;11.23;1.58;;;;;;;8.47;64.00;100748.47;5046886;27;101817;-70
2023/02/02 05:06:30;;;;;;;16.95;2.40;;;;;;;8.38;64.61;100745.16;5048581;27;98623;-71
2023/02/02 05:08:56;;;;;;;10.20;1.98;;;;;;;8.52;64.47;100752.69;5061326;27;96774;-69
2023/02/02 05:11:23;;;;;;;16.30;2.15;;;;;;;8.30;65.11;100754.13;5046953;27;99433;-69
2023/02/02 05:13:51;;;;;;;15.57;1.52;;;;;;;8.07;66.74;100754.72;5049994;27;98966;-69
2023/02/02 05:16:18;;;;;;;14.27;1.77;;;;;;;8.44;64.88;100759.94;5046105;27;96920;-69
2023/02/02 05:18:50;;;;;;;11.40;1.40;;;;;;;8.37;64.98;100774.16;5055829;27;97200;-71
2023/02/02 05:21:16;;;;;;;10.55;1.30;;;;;;;8.28;65.26;100779.63;5062890;27;99231;-68
2023/02/02 05:23:43;;;;;;;14.27;1.85;;;;;;;8.00;66.52;100775.06;5056812;27;98923;-69
2023/02/02 05:26:14;;;;;;;18.10;2.40;;;;;;;8.25;65.98;100784.97;5045906;27;96836;-69
2023/02/02 05:28:41;;;;;;;8.57;1.33;;;;;;;8.47;64.81;100782.72;5047047;27;98570;-69
2023/02/02 05:31:08;;;;;;;13.05;2.13;;;;;;;8.28;64.43;100791.03;5048093;27;99734;-71
2023/02/02 05:33:34;;;;;;;12.07;1.40;;;;;;;8.21;65.21;100794.72;5049288;27;99125;-71
2023/02/02 05:36:02;;;;;;;10.90;1.67;;;;;;;8.75;63.67;100795.06;5050180;27;98675;-70
2023/02/02 05:38:29;;;;;;;20.13;1.80;;;;;;;8.64;63.24;100809.44;5061089;27;97498;-70
2023/02/02 05:40:56;;;;;;;9.80;1.35;;;;;;;8.45;63.32;100803.81;5052513;27;97796;-69
2023/02/02 05:43:25;;;;;;;10.20;1.27;;;;;;;8.19;64.14;100811.47;5057977;27;98936;-69
2023/02/02 05:45:51;;;;;;;17.15;1.75;;;;;;;8.45;64.11;100814.34;5051195;27;98799;-69
2023/02/02 05:48:17;;;;;;;10.80;1.40;;;;;;;8.98;61.71;100819.94;5046086;27;97340;-69
2023/02/02 05:50:48;;;;;;;12.70;1.75;;;;;;;8.76;61.71;100822.28;5056314;27;98842;-70
2023/02/02 05:53:16;;;;;;;10.55;1.38;;;;;;;8.36;63.17;100833.00;5054980;27;98783;-70
2023/02/02 05:55:43;;;;;;;11.00;1.83;;;;;;;8.29;63.58;100832.25;5046543;27;98410;-70
2023/02/02 05:58:09;;;;;;;8.57;1.70;;;;;;;8.74;61.68;100827.59;5050024;27;96943;-72
2023/02/02 06:00:35;;;;;;;15.70;2.22;;;;;;;8.50;62.32;100837.91;5053961;27;98188;-70
2023/02/02 06:03:02;;;;;;;13.57;1.75;;;;;;;8.90;61.31;100833.34;5054406;27;99369;-70
2023/02/02 06:05:28;;;;;;;19.80;2.00;;;;;;;8.53;61.67;100838.72;5047118;27;97569;-71
2023/02/02 06:07:55;;;;;;;13.93;1.73;;;;;;;8.77;60.27;100845.97;5053170;27;96870;-70
2023/02/02 06:10:22;;;;;;;8.43;0.95;;;;;;;8.37;61.65;100859.28;5050546;27;99167;-70
2023/02/02 06:12:49;;;;;;;23.25;2.17;;;;;;;8.72;61.41;100862.81;5047710;27;99160;-70
2023/02/02 06:15:15;;;;;;;17.38;1.88;;;;;;;8.68;61.12;100847.97;5057386;27;96779;-70
2023/02/02 06:17:42;;;;;;;15.48;1.95;;;;;;;8.78;61.12;100865.28;5046845;27;97630;-69
2023/02/02 06:20:09;;;;;;;9.55;1.65;;;;;;;8.87;60.21;100862.38;5052467;27;99079;-71
2023/02/02 06:22:36;;;;;;;12.07;2.38;;;;;;;8.66;61.27;100870.88;5049095;27;97943;-71
2023/02/02 06:25:04;;;;;;;10.50;1.50;;;;;;;8.68;60.58;100880.44;5055725;27;98621;-70
2023/02/02 06:27:32;;;;;;;21.77;1.65;;;;;;;8.65;60.78;100900.75;5053765;27;97369;-71
2023/02/02 06:29:58;;;;;;;13.48;1.65;;;;;;;8.86;60.21;100894.91;5059306;27;100657;-71
2023/02/02 06:32:24;;;;;;;16.55;1.95;;;;;;;9.06;59.60;100897.88;5044372;27;98944;-71
2023/02/02 06:34:51;;;;;;;14.52;1.75;;;;;;;9.08;59.29;100896.09;5055697;27;96762;-71
2023/02/02 06:37:17;;;;;;;16.08;2.08;;;;;;;9.03;59.34;100897.13;5053693;27;96775;-70
2023/02/02 06:39:43;;;;;;;14.07;1.77;;;;;;;8.67;60.29;100909.44;5047955;27;98983;-70
2023/02/02 06:42:10;;;;;;;13.35;1.63;;;;;;;8.85;59.86;100903.75;5051484;27;98593;-70
2023/02/02 06:44:38;;;;;;;17.38;1.58;;;;;;;8.52;60.29;100907.22;5052908;27;96783;-71
2023/02/02 06:47:04;;;;;;;11.57;2.10;;;;;;;8.35;60.77;100918.16;5039489;27;98429;-71
2023/02/02 06:49:31;;;;;;;8.35;1.52;;;;;;;8.42;60.24;100913.59;5047842;27;99718;-72
2023/02/02 06:51:57;;;;;;;13.43;1.75;;;;;;;8.45;60.18;100918.81;5043252;27;99063;-70
2023/02/02 06:54:23;;;;;;;13.13;1.33;;;;;;;8.39;60.42;100923.31;5047688;27;97123;-70
2023/02/02 06:56:50;;;;;;;12.98;1.60;;;;;;;8.63;59.87;100935.03;5050080;27;97976;-69
2023/02/02 06:59:17;;;;;;;11.38;1.63;;;;;;;8.71;58.87;100932.22;5048507;27;99122;-71
2023/02/02 07:01:44;;;;;;;10.82;1.05;;;;;;;8.78;58.84;100947.84;5044936;27;99574;-70
2023/02/02 07:04:11;;;;;;;14.40;1.27;;;;;;;8.59;58.29;100937.78;5040004;27;98428;-69
2023/02/02 07:06:39;;;;;;;13.25;1.38;;;;;;;8.35;58.95;100955.88;5045209;27;97364;-70
2023/02/02 07:09:05;;;;;;;9.30;1.52;;;;;;;8.28;58.56;100954.25;5043975;27;97854;-69
2023/02/02 07:11:34;;;;;;;12.40;2.45;;;;;;;8.47;58.83;100959.97;5054715;27;98946;-69
2023/02/02 07:14:01;;;;;;;11.95;1.80;;;;;;;8.39;57.99;100973.34;5061808;27;96725;-70
2023/02/02 07:16:27;;;;;;;13.13;1.85;;;;;;;8.56;56.85;100972.94;5058270;27;96844;-70
2023/02/02 07:18:55;;;;;;;11.30;1.70;;;;;;;8.75;56.47;100981.28;5058405;27;98924;-68
2023/02/02 07:21:24;;;;;;;13.13;1.55;;;;;;;8.70;56.13;100989.28;5059887;27;98862;-68
2023/02/02 07:23:51;;;;;;;14.35;2.03;;;;;;;8.62;56.24;100988.59;5049893;27;96820;-68
2023/02/02 07:26:18;;;;;;;17.92;2.08;;;;;;;8.87;55.73;101001.19;5052313;27;96761;-69
2023/02/02 07:28:46;;;;;;;11.85;2.42;;;;;;;9.05;55.76;101006.03;5048299;27;99256;-68
2023/02/02 07:31:14;;;;;;;13.48;2.13;;;;;;;8.57;56.85;101011.56;5045103;27;99196;-69
2023/02/02 07:33:41;;;;;;;20.75;1.35;;;;;;;8.78;56.18;101004.94;5043965;27;97626;-70
2023/02/02 07:36:10;;;;;;;12.88;1.58;;;;;;;8.71;56.62;101013.88;5048322;27;97031;-69
2023/02/02 07:38:37;;;;;;;17.85;2.05;;;;;;;8.76;56.44;101007.59;5049049;27;98742;-69
2023/02/02 07:41:04;;;;;;;24.80;1.42;;;;;;;8.97;56.21;101010.63;5047511;27;99147;-70
2023/02/02 07:43:30;;;;;;;11.98;1.45;;;;;;;8.66;57.15;101015.75;5051046;27;97296;-69
2023/02/02 07:46:01;;;;;;;14.43;1.25;;;;;;;8.88;56.50;101016.97;5047855;27;96984;-70
2023/02/02 07:48:28;;;;;;;14.55;2.05;;;;;;;9.10;55.66;101020.81;5049096;27;98823;-70
2023/02/02 07:50:58;;;;;;;15.10;1.60;;;;;;;8.97;56.50;101024.66;5046960;27;99778;-70
2023/02/02 07:53:25;;;;;;;13.70;1.60;;;;;;;9.00;56.52;101024.56;5053019;27;97255;-69
2023/02/02 07:55:52;;;;;;;12.05;1.65;;;;;;;9.07;56.63;101028.78;5051746;27;100748;-70
2023/02/02 07:58:18;;;;;;;13.60;1.92;;;;;;;8.96;56.97;101038.75;5039993;27;100816;-68
2023/02/02 08:00:44;;;;;;;16.77;2.50;;;;;;;8.87;57.52;101044.22;5049926;27;98090;-68
2023/02/02 08:03:11;;;;;;;13.07;2.42;;;;;;;8.93;58.29;101033.53;5042333;27;96811;-69
2023/02/02 08:05:38;;;;;;;18.60;2.00;;;;;;;8.56;59.61;101037.94;5038722;27;97487;-70
2023/02/02 08:08:04;;;;;;;13.65;2.15;;;;;;;8.54;60.60;101047.63;5044269;27;98349;-68
2023/02/02 08:10:32;;;;;;;17.60;1.85;;;;;;;8.89;59.39;101060.00;5053880;27;98286;-72
2023/02/02 08:12:58;;;;;;;15.85;1.98;;;;;;;8.82;60.01;101058.41;5032109;27;98826;-70
2023/02/02 08:15:25;;;;;;;19.10;2.53;;;;;;;8.85;60.27;101060.97;5042640;27;98788;-72
2023/02/02 08:17:51;;;;;;;13.77;1.95;;;;;;;8.70;60.75;101064.84;5040164;27;97857;-71
2023/02/02 08:20:18;;;;;;;15.05;2.35;;;;;;;8.99;59.94;101066.81;5052128;27;99135;-71
2023/02/02 08:22:45;;;;;;;16.17;2.50;;;;;;;9.09;60.05;101063.03;5039190;27;99146;-71
2023/02/02 08:25:11;;;;;;;14.55;1.88;;;;;;;9.44;59.39;101070.94;5048348;27;98722;-69
2023/02/02 08:27:39;;;;;;;13.93;1.65;;;;;;;9.09;60.25;101082.34;5048293;27;99444;-70
2023/02/02 08:30:06;;;;;;;14.88;2.13;;;;;;;9.45;58.89;101072.63;5056395;27;99079;-71
2023/02/02 08:32:32;;;;;;;16.65;2.08;;;;;;;9.40;58.63;101081.56;5048469;27;97098;-71
2023/02/02 08:34:59;;;;;;;12.70;1.98;;;;;;;9.41;58.78;101085.94;5055076;27;97938;-71
2023/02/02 08:37:25;;;;;;;12.10;1.75;;;;;;;8.99;59.94;101091.34;5045882;27;99162;-71
2023/02/02 08:39:51;;;;;;;16.85;2.78;;;;;;;8.99;60.10;101083.44;5053571;27;99142;-70
2023/02/02 08:42:18;;;;;;;22.23;2.63;;;;;;;9.13;58.92;101088.41;5048534;27;98605;-70
2023/02/02 08:44:45;;;;;;;12.98;1.83;;;;;;;9.33;58.49;101085.28;5055656;27;96761;-73
2023/02/02 08:47:12;;;;;;;12.18;1.60;;;;;;;9.24;58.37;101088.16;5045988;27;97570;-70
2023/02/02 08:49:38;;;;;;;13.32;1.70;;;;;;;8.88;59.29;101087.25;5042012;27;98860;-70
2023/02/02 08:52:04;;;;;;;19.73;3.30;;;;;;;8.83;60.12;101090.00;5047996;27;96973;-71
2023/02/02 08:54:31;;;;;;;13.10;2.25;;;;;;;8.87;60.15;101098.69;5055725;27;97012;-71
2023/02/02 08:56:57;;;;;;;11.93;1.85;;;;;;;9.41;58.36;101091.22;5045364;27;98838;-71
2023/02/02 08:59:24;;;;;;;11.82;1.45;;;;;;;9.57;57.91;101097.88;5041610;27;99276;-70
2023/02/02 09:01:51;;;;;;;12.32;1.88;;;;;;;9.93;56.71;101110.06;5054624;27;98490;-71
2023/02/02 09:04:18;;;;;;;12.93;1.60;;;;;;;9.97;56.19;101102.94;5046499;27;96837;-73
2023/02/02 09:06:45;;;;;;;12.00;1.73;;;;;;;9.58;56.58;101107.50;5046105;27;99016;-72
2023/02/02 09:09:14;;;;;;;13.27;1.88;;;;;;;9.83;56.91;101108.59;5038103;27;99709;-72
2023/02/02 09:11:41;;;;;;;15.82;2.85;;;;;;;9.51;57.58;101105.94;5045448;27;96799;-71
2023/02/02 09:14:08;;;;;;;19.77;2.50;;;;;;;9.68;56.81;101123.97;5038313;27;97429;-71
2023/02/02 09:16:35;;;;;;;17.02;2.08;;;;;;;9.58;56.92;101125.97;5033294;27;101119;-71
2023/02/02 09:19:04;;;;;;;12.88;1.70;;;;;;;9.91;56.35;101117.16;5039491;27;98988;-71
2023/02/02 09:21:36;;;;;;;11.27;1.40;;;;;;;9.89;55.89;101131.31;5049756;27;96815;-70
2023/02/02 09:24:07;;;;;;;10.82;1.45;;;;;;;9.58;56.37;101124.19;5043357;27;96948;-74
2023/02/02 09:26:33;;;;;;;8.02;2.38;;;;;;;10.00;55.57;101122.19;5034202;27;97608;-70
2023/02/02 09:29:02;;;;;;;10.60;1.27;;;;;;;9.96;55.06;101141.69;5036100;27;100843;-70
2023/02/02 09:31:30;;;;;;;10.25;1.42;;;;;;;9.85;55.00;101143.72;5053030;27;97098;-70
2023/02/02 09:34:00;;;;;;;14.30;1.60;;;;;;;9.85;55.45;101151.63;5036385;27;98737;-69
2023/02/02 09:36:28;;;;;;;9.77;2.58;;;;;;;10.23;54.14;101147.16;5040535;27;98880;-71
2023/02/02 09:38:55;;;;;;;12.65;1.60;;;;;;;10.18;54.06;101156.97;5044704;27;98973;-70
2023/02/02 09:41:34;;;;;;;10.23;1.33;;;;;;;9.75;55.69;101155.44;5044218;27;99529;-70
2023/02/02 09:44:10;;;;;;;18.75;1.60;;;;;;;9.86;55.54;101156.00;5052033;27;97434;-71
2023/02/02 09:46:48;;;;;;;17.60;1.63;;;;;;;9.57;54.55;101169.09;5038950;27;97877;-71
2023/02/02 09:49:20;;;;;;;12.88;2.15;;;;;;;9.53;55.08;101176.19;5029024;27;97595;-71
2023/02/02 09:51:57;;;;;;;19.90;1.73;;;;;;;10.02;54.37;101174.09;5039475;27;98612;-72
2023/02/02 09:54:28;;;;;;;9.85;1.48;;;;;;;10.42;52.85;101171.28;5035666;27;98664;-69
2023/02/02 09:56:58;;;;;;;11.82;1.42;;;;;;;10.15;53.77;101178.16;5033544;27;99183;-71
2023/02/02 09:59:29;;;;;;;17.85;2.72;;;;;;;9.86;53.92;101182.41;5035473;27;102189;-71
2023/02/02 10:01:57;;;;;;;16.52;2.60;;;;;;;10.56;52.68;101182.34;5042419;27;98455;-71
2023/02/02 10:04:30;;;;;;;17.42;1.42;;;;;;;10.53;52.07;101177.13;5047737;27;97443;-70
2023/02/02 10:07:05;;;;;;;9.52;1.17;;;;;;;10.43;52.68;101195.03;5047063;27;98979;-70
2023/02/02 10:09:39;;;;;;;15.95;1.77;;;;;;;10.75;51.65;101171.19;5038320;27;97697;-71
2023/02/02 10:12:20;;;;;;;13.80;2.05;;;;;;;10.24;52.88;101184.06;5045335;27;97178;-71
2023/02/02 10:14:52;;;;;;;10.25;2.17;;;;;;;10.09;52.50;101188.88;5032582;27;98293;-72
2023/02/02 10:17:36;;;;;;;12.38;1.70;;;;;;;10.12;52.69;101183.50;5049578;27;97854;-71
2023/02/02 10:20:15;;;;;;;14.40;2.72;;;;;;;10.64;50.71;101188.25;5049261;27;98869;-71
2023/02/02 10:22:45;;;;;;;14.85;2.08;;;;;;;10.78;49.95;101191.34;5049221;27;96899;-71
2023/02/02 10:25:13;;;;;;;10.35;2.10;;;;;;;10.76;50.26;101206.41;5040451;27;99602;-71
2023/02/02 10:27:42;;;;;;;11.82;2.33;;;;;;;10.98;49.31;101202.22;5049035;27;99731;-70
2023/02/02 10:30:18;;;;;;;10.07;1.80;;;;;;;11.10;48.42;101214.19;5044036;27;99988;-71
2023/02/02 10:32:49;;;;;;;12.00;1.73;;;;;;;10.90;47.68;101206.84;5051262;27;100714;-71
2023/02/02 10:35:34;;;;;;;12.15;1.30;;;;;;;10.47;48.25;101201.06;5049850;27;98858;-72
2023/02/02 10:38:07;;;;;;;9.77;1.10;;;;;;;10.77;48.32;101211.63;5053933;27;98857;-70
2023/02/02 10:40:44;;;;;;;7.75;1.30;;;;;;;11.24;47.44;101219.94;5052907;27;99522;-71
2023/02/02 10:46:16;;;;;;;14.07;2.33;;;;;;;11.01;46.37;101204.78;5050792;27;97539;-70
2023/02/02 10:48:46;;;;;;;10.02;1.25;;;;;;;10.93;45.70;101221.78;5052235;27;98915;-72
2023/02/02 10:51:21;;;;;;;11.00;1.52;;;;;;;11.46;45.21;101217.50;5047851;27;100664;-70
2023/02/02 10:53:52;;;;;;;8.85;2.17;;;;;;;11.56;44.33;101218.91;5050692;27;96804;-71
2023/02/02 10:56:22;;;;;;;8.13;1.25;;;;;;;11.49;44.71;101220.91;5044172;27;97180;-71
2023/02/02 10:58:56;;;;;;;6.07;1.15;;;;;;;12.11;43.94;101220.66;5053514;27;97685;-70
2023/02/02 11:01:23;;;;;;;7.93;1.13;;;;;;;11.48;44.90;101220.97;5047172;27;102840;-71
2023/02/02 11:06:48;;;;;;;9.25;1.33;;;;;;;11.60;45.50;101231.16;5058741;27;96701;-71
2023/02/02 11:06:48;;;;;;;12.40;1.45;;;;;;;11.38;45.31;101238.91;5045196;27;98578;-74
2023/02/02 11:09:19;;;;;;;7.80;0.95;;;;;;;11.59;45.16;101242.66;5055348;27;98888;-70
2023/02/02 11:11:49;;;;;;;7.93;1.60;;;;;;;11.43;44.77;101250.19;5054076;27;101431;-71
2023/02/02 11:14:23;;;;;;;5.47;0.98;;;;;;;11.76;44.01;101253.59;5060481;27;97060;-71
2023/02/02 11:17:01;;;;;;;11.23;1.88;;;;;;;11.45;44.11;101242.22;5047533;27;96940;-70
2023/02/02 11:19:29;;;;;;;10.75;2.60;;;;;;;11.54;44.25;101257.81;5052546;27;99165;-72
2023/02/02 11:21:57;;;;;;;8.05;1.25;;;;;;;11.97;43.91;101252.03;5056018;27;98807;-71
2023/02/02 11:24:28;;;;;;;7.63;1.23;;;;;;;11.49;43.12;101259.72;5051574;27;97363;-71
2023/02/02 11:26:57;;;;;;;4.25;0.90;;;;;;;11.56;43.56;101264.78;5047891;27;96830;-68
2023/02/02 11:29:29;;;;;;;6.78;0.70;;;;;;;11.24;43.56;101259.63;5043273;27;98885;-71
2023/02/02 11:31:55;;;;;;;7.85;1.17;;;;;;;11.43;44.11;101273.16;5055642;27;100478;-71
2023/02/02 11:34:24;;;;;;;9.68;1.20;;;;;;;11.25;44.40;101268.41;5055918;27;97346;-69
2023/02/02 11:36:59;;;;;;;11.90;1.20;;;;;;;10.66;45.69;101271.88;5060093;27;97360;-70
2023/02/02 11:39:27;;;;;;;10.25;1.20;;;;;;;10.89;45.77;101280.94;5053921;27;99475;-70
2023/02/02 11:42:04;;;;;;;11.38;1.38;;;;;;;11.41;45.10;101283.81;5052230;27;98219;-70
2023/02/02 11:44:34;;;;;;;11.65;1.52;;;;;;;11.74;44.91;101283.69;5048900;27;96798;-71